Time;durP1;ratioP1;P1;durP2;ratioP2;P2;SDS_P1;SDS_P2;PMS_P1;PMS_P2;Temp;Humidity;BMP_temperature;BMP_pressure;BME280_temperature;BME280_humidity;BME280_pressure;Samples;Min_cycle;Max_cycle;Signal;HPM_P1;HPM_P2
2024/03/12 00:00:22;;;;;;;19.30;10.70;;;;;;;-0.94;68.18;101430.52;108198;1257;71126;-65
2024/03/12 00:02:51;;;;;;;20.00;10.80;;;;;;;-0.93;68.31;101426.02;107948;1254;72494;-65
2024/03/12 00:05:19;;;;;;;19.20;11.50;;;;;;;-0.92;68.48;101427.14;107988;1256;60426;-64
2024/03/12 00:07:48;;;;;;;19.50;11.00;;;;;;;-0.91;68.61;101424.80;108212;1254;60299;-65
2024/03/12 00:10:19;;;;;;;17.30;11.20;;;;;;;-0.90;68.61;101422.05;108238;1252;73861;-66
2024/03/12 00:12:51;;;;;;;19.70;11.20;;;;;;;-0.90;68.68;101416.63;108057;1254;71978;-65
2024/03/12 00:15:22;;;;;;;19.00;10.80;;;;;;;-0.89;68.70;101415.98;108157;1254;71618;-66
2024/03/12 00:17:53;;;;;;;18.80;10.90;;;;;;;-0.88;68.77;101413.44;108096;1258;59606;-65
2024/03/12 00:20:29;;;;;;;18.10;9.60;;;;;;;-0.86;68.65;101411.48;108115;1254;60298;-65
2024/03/12 00:22:58;;;;;;;17.50;10.70;;;;;;;-0.85;68.56;101410.86;108090;1257;72834;-64
2024/03/12 00:25:28;;;;;;;16.90;10.70;;;;;;;-0.83;68.61;101412.34;108421;1254;71458;-65
2024/03/12 00:27:56;;;;;;;16.80;9.10;;;;;;;-0.81;68.30;101411.46;108112;1253;71713;-66
2024/03/12 00:30:30;;;;;;;17.40;10.00;;;;;;;-0.79;67.97;101413.89;108192;1254;59276;-64
2024/03/12 00:32:59;;;;;;;16.10;9.60;;;;;;;-0.78;67.95;101411.86;108047;1252;60466;-65
2024/03/12 00:35:32;;;;;;;19.80;10.40;;;;;;;-0.78;67.65;101413.01;108184;1254;72562;-65
2024/03/12 00:38:04;;;;;;;16.60;10.10;;;;;;;-0.78;67.60;101411.27;108084;1254;72836;-65
2024/03/12 00:40:33;;;;;;;19.40;10.80;;;;;;;-0.79;67.47;101411.01;108223;1254;72709;-65
2024/03/12 00:43:03;;;;;;;16.80;10.00;;;;;;;-0.80;67.42;101405.48;108047;1256;60299;-65
2024/03/12 00:45:36;;;;;;;19.90;10.20;;;;;;;-0.80;67.31;101405.95;108101;1254;60285;-64
2024/03/12 00:48:09;;;;;;;17.70;9.90;;;;;;;-0.80;67.40;101407.16;108076;1253;72662;-65
2024/03/12 00:50:37;;;;;;;;;;;;;;;-0.79;67.53;101401.44;108122;1254;71442;-65
2024/03/12 00:53:07;;;;;;;24.70;11.90;;;;;;;-0.77;67.79;101400.27;108093;1256;71490;-65
2024/03/12 00:55:40;;;;;;;20.90;11.60;;;;;;;-0.75;68.40;101401.21;108219;1259;60342;-67
2024/03/12 00:58:12;;;;;;;19.40;11.50;;;;;;;-0.75;68.58;101398.27;108106;1253;60410;-66
2024/03/12 01:00:40;;;;;;;21.20;10.90;;;;;;;-0.74;68.82;101393.23;108135;1254;72781;-64
2024/03/12 01:03:09;;;;;;;19.00;11.10;;;;;;;-0.74;68.98;101385.79;108172;1254;71804;-65
2024/03/12 01:05:37;;;;;;;21.00;11.50;;;;;;;-0.72;69.03;101386.02;108231;1254;71489;-66
2024/03/12 01:08:07;;;;;;;23.40;12.00;;;;;;;-0.71;69.05;101385.58;108173;1253;60684;-65
2024/03/12 01:10:35;;;;;;;19.50;11.70;;;;;;;-0.70;68.96;101382.46;108162;1254;60057;-66
2024/03/12 01:13:08;;;;;;;17.40;9.90;;;;;;;-0.67;69.01;101379.28;108119;1254;73578;-66
2024/03/12 01:15:39;;;;;;;21.10;11.70;;;;;;;-0.66;68.83;101377.56;108310;1254;71432;-65
2024/03/12 01:18:11;;;;;;;19.60;10.30;;;;;;;-0.66;68.75;101378.38;108153;1257;72664;-66
2024/03/12 01:20:40;;;;;;;18.10;10.10;;;;;;;-0.65;68.62;101377.45;108167;1254;60395;-66
2024/03/12 01:23:08;;;;;;;18.10;9.80;;;;;;;-0.65;68.56;101380.86;108184;1254;60421;-66
2024/03/12 01:25:36;;;;;;;17.70;10.30;;;;;;;-0.64;68.78;101376.63;108084;1254;74074;-66
2024/03/12 01:28:05;;;;;;;17.90;10.00;;;;;;;-0.64;68.63;101378.56;108101;1254;71230;-65
2024/03/12 01:30:36;;;;;;;17.80;10.30;;;;;;;-0.64;68.35;101373.60;108144;1254;72474;-65
2024/03/12 01:33:08;;;;;;;19.20;10.80;;;;;;;-0.64;68.37;101372.91;108080;1253;61679;-65
2024/03/12 01:35:38;;;;;;;16.50;9.30;;;;;;;-0.63;68.13;101374.55;108303;1253;59538;-66
2024/03/12 01:38:08;;;;;;;18.30;10.70;;;;;;;-0.61;67.92;101372.30;108161;1254;72605;-65
2024/03/12 01:40:39;;;;;;;17.90;9.30;;;;;;;-0.60;67.77;101368.30;108202;1254;71594;-66
2024/03/12 01:43:07;;;;;;;18.80;10.30;;;;;;;-0.58;67.66;101366.72;108254;1254;71409;-65
2024/03/12 01:45:35;;;;;;;19.20;10.10;;;;;;;-0.58;67.71;101366.53;108208;1254;60525;-66
2024/03/12 01:48:09;;;;;;;17.20;10.30;;;;;;;-0.58;68.04;101365.84;108138;1253;60271;-65
2024/03/12 01:50:41;;;;;;;15.70;9.00;;;;;;;-0.58;68.05;101364.98;108191;1254;73882;-64
2024/03/12 01:53:10;;;;;;;21.20;10.30;;;;;;;-0.58;68.25;101362.66;107996;1255;73808;-65
2024/03/12 01:55:44;;;;;;;19.20;10.80;;;;;;;-0.58;68.05;101364.83;108154;1253;75043;-65
2024/03/12 01:58:25;;;;;;;16.70;9.40;;;;;;;-0.59;68.15;101361.19;108118;1254;60924;-66
2024/03/12 02:00:54;;;;;;;16.10;9.20;;;;;;;-0.58;67.96;101357.30;108184;1254;62029;-65
2024/03/12 02:03:33;;;;;;;18.20;9.50;;;;;;;-0.60;67.80;101357.46;108088;1254;73865;-66
2024/03/12 02:06:08;;;;;;;16.90;9.90;;;;;;;-0.61;67.98;101360.04;108066;1253;72813;-65
2024/03/12 02:08:44;;;;;;;18.00;10.40;;;;;;;-0.61;67.73;101356.73;108146;1254;71244;-66
2024/03/12 02:11:24;;;;;;;17.80;10.50;;;;;;;-0.62;67.84;101358.20;108353;1254;60446;-65
2024/03/12 02:14:02;;;;;;;16.60;9.90;;;;;;;-0.63;67.90;101355.70;108365;1254;60272;-64
2024/03/12 02:16:42;;;;;;;16.90;9.90;;;;;;;-0.64;67.98;101350.84;108246;1254;73839;-65
2024/03/12 02:19:34;;;;;;;17.90;10.00;;;;;;;-0.64;68.30;101353.02;108140;1253;75201;-65
2024/03/12 02:22:10;;;;;;;19.00;11.20;;;;;;;-0.66;68.49;101348.29;108184;1254;71406;-65
2024/03/12 02:24:43;;;;;;;20.00;11.30;;;;;;;-0.66;68.75;101343.27;108213;1252;60431;-64
2024/03/12 02:27:19;;;;;;;21.40;12.20;;;;;;;-0.66;68.74;101341.36;108295;1254;60403;-64
2024/03/12 02:30:01;;;;;;;21.70;12.00;;;;;;;-0.67;68.91;101339.33;108162;1254;75073;-64
2024/03/12 02:32:57;;;;;;;22.60;11.60;;;;;;;-0.68;68.94;101333.17;108205;1254;73201;-64
2024/03/12 02:35:52;;;;;;;24.80;13.00;;;;;;;-0.68;69.46;101331.59;108198;1254;71449;-64
2024/03/12 02:38:28;;;;;;;26.00;13.90;;;;;;;-0.70;69.98;101328.60;108120;1255;62704;-64
2024/03/12 02:41:11;;;;;;;23.20;13.20;;;;;;;-0.72;70.40;101331.63;108306;1253;60065;-64
2024/03/12 02:43:53;;;;;;;24.00;12.40;;;;;;;-0.73;71.02;101331.69;108119;1254;74850;-65
2024/03/12 02:46:32;;;;;;;21.40;11.90;;;;;;;-0.73;71.25;101331.40;108226;1254;71951;-64
2024/03/12 02:49:17;;;;;;;23.10;11.90;;;;;;;-0.74;71.71;101330.77;108161;1254;72737;-64
2024/03/12 02:52:05;;;;;;;23.30;12.40;;;;;;;-0.76;72.08;101325.54;108168;1254;60476;-65
2024/03/12 02:54:42;;;;;;;22.60;12.20;;;;;;;-0.78;72.40;101318.81;108300;1254;60308;-65
2024/03/12 02:57:24;;;;;;;26.10;12.90;;;;;;;-0.79;72.85;101318.31;108172;1253;73929;-65
2024/03/12 03:00:14;;;;;;;23.40;12.50;;;;;;;-0.78;72.92;101320.67;108158;1254;71453;-64
2024/03/12 03:02:56;;;;;;;21.90;11.90;;;;;;;-0.79;73.26;101318.48;108156;1253;72700;-65
2024/03/12 03:05:37;;;;;;;19.50;11.50;;;;;;;-0.78;73.53;101317.08;108146;1253;59876;-65
2024/03/12 03:08:13;;;;;;;20.90;11.90;;;;;;;-0.78;73.57;101317.77;108215;1253;60392;-65
2024/03/12 03:10:46;;;;;;;20.50;11.10;;;;;;;-0.79;73.69;101314.48;108177;1254;74967;-65
2024/03/12 03:13:37;;;;;;;19.80;11.20;;;;;;;-0.78;73.78;101314.80;108148;1253;71671;-65
2024/03/12 03:16:20;;;;;;;20.90;11.10;;;;;;;-0.78;73.89;101315.95;108170;1253;74092;-63
2024/03/12 03:18:58;;;;;;;21.10;11.90;;;;;;;-0.76;73.84;101319.48;108168;1253;60485;-62
2024/03/12 03:21:40;;;;;;;20.30;10.60;;;;;;;-0.74;73.94;101325.20;108222;1253;60316;-64
2024/03/12 03:24:38;;;;;;;21.40;11.90;;;;;;;-0.73;73.74;101324.54;108133;1252;73861;-66
2024/03/12 03:27:36;;;;;;;25.00;12.30;;;;;;;-0.73;73.73;101322.61;108101;1254;72926;-65
2024/03/12 03:30:24;;;;;;;22.40;12.20;;;;;;;-0.74;73.86;101323.88;108166;1254;74570;-64
2024/03/12 03:33:25;;;;;;;18.50;10.10;;;;;;;-0.73;73.75;101318.24;108166;1253;60313;-65
2024/03/12 03:36:07;;;;;;;21.20;12.40;;;;;;;-0.73;73.96;101318.60;108175;1253;60297;-65
2024/03/12 03:39:00;;;;;;;17.80;9.70;;;;;;;-0.73;73.93;101316.14;108088;1252;73965;-65
2024/03/12 03:41:55;;;;;;;19.30;11.80;;;;;;;-0.73;74.01;101310.86;108195;1253;74230;-64
2024/03/12 03:44:39;;;;;;;22.70;11.40;;;;;;;-0.74;74.31;101313.75;108167;1254;70435;-65
2024/03/12 03:47:34;;;;;;;23.50;11.80;;;;;;;-0.74;74.51;101311.13;108200;1256;59718;-64
2024/03/12 03:50:19;;;;;;;21.80;11.50;;;;;;;-0.72;74.63;101311.52;108319;1253;60277;-64
2024/03/12 03:52:56;;;;;;;20.50;10.80;;;;;;;-0.70;74.64;101310.05;108171;1253;74107;-65
2024/03/12 03:55:39;;;;;;;19.80;11.40;;;;;;;-0.66;74.73;101309.48;108120;1254;72762;-65
2024/03/12 03:58:23;;;;;;;22.70;11.80;;;;;;;-0.64;75.06;101306.64;108190;1254;74932;-65
2024/03/12 04:01:18;;;;;;;21.30;12.20;;;;;;;-0.63;75.60;101303.55;108096;1257;60365;-64
2024/03/12 04:04:15;;;;;;;21.20;12.20;;;;;;;-0.60;75.90;101299.58;108161;1253;61009;-65
2024/03/12 04:07:19;;;;;;;20.90;11.80;;;;;;;-0.59;76.28;101300.83;108282;1253;73927;-64
2024/03/12 04:09:54;;;;;;;20.10;11.70;;;;;;;-0.58;76.36;101294.99;108093;1254;72907;-64
2024/03/12 04:12:29;;;;;;;19.80;10.70;;;;;;;-0.57;76.36;101298.70;108161;1254;72674;-65
2024/03/12 04:15:12;;;;;;;21.50;11.90;;;;;;;-0.54;76.27;101297.80;108177;1253;59309;-64
2024/03/12 04:18:05;;;;;;;21.20;11.30;;;;;;;-0.51;76.47;101292.42;108145;1253;59168;-64
2024/03/12 04:20:47;;;;;;;20.20;12.50;;;;;;;-0.47;76.56;101294.45;108137;1252;72595;-64
2024/03/12 04:23:48;;;;;;;21.80;11.40;;;;;;;-0.44;76.36;101289.98;107951;1252;72981;-65
2024/03/12 04:26:30;;;;;;;;;;;;;;;-0.40;76.18;101292.05;107929;1254;73971;-65
2024/03/12 04:29:14;;;;;;;20.80;10.20;;;;;;;-0.36;75.87;101292.70;108094;1253;62909;-64
2024/03/12 04:31:57;;;;;;;17.90;10.60;;;;;;;-0.32;75.76;101290.95;108116;1253;60023;-65
2024/03/12 04:34:29;;;;;;;17.80;10.10;;;;;;;-0.29;75.84;101288.99;108096;1253;72888;-65
2024/03/12 04:37:00;;;;;;;20.40;10.70;;;;;;;-0.25;75.59;101287.88;108295;1254;72838;-65
2024/03/12 04:39:32;;;;;;;19.50;10.40;;;;;;;-0.20;75.14;101286.66;108191;1254;72033;-65
2024/03/12 04:42:05;;;;;;;18.30;10.70;;;;;;;-0.15;74.97;101283.41;108168;1253;60429;-66
2024/03/12 04:44:35;;;;;;;19.60;11.00;;;;;;;-0.09;74.76;101281.38;108121;1253;61098;-65
2024/03/12 04:47:04;;;;;;;18.70;11.20;;;;;;;-0.02;74.40;101279.79;108118;1253;73103;-66
2024/03/12 04:49:40;;;;;;;19.90;9.60;;;;;;;0.04;74.53;101283.46;108177;1255;73732;-66
2024/03/12 04:52:21;;;;;;;20.40;11.10;;;;;;;0.10;74.08;101281.70;108107;1253;72750;-65
2024/03/12 04:54:53;;;;;;;17.30;10.00;;;;;;;0.17;73.54;101279.04;108144;1252;60578;-66
2024/03/12 04:57:35;;;;;;;17.30;10.20;;;;;;;0.26;73.18;101281.77;108111;1253;60985;-64
2024/03/12 05:00:14;;;;;;;18.60;10.60;;;;;;;0.33;72.79;101284.13;108158;1253;72188;-65
2024/03/12 05:03:09;;;;;;;17.80;9.30;;;;;;;0.40;72.20;101284.39;108165;1253;72162;-65
2024/03/12 05:05:57;;;;;;;18.30;10.70;;;;;;;0.46;71.71;101288.69;108099;1253;72686;-64
2024/03/12 05:08:39;;;;;;;19.20;11.00;;;;;;;0.54;71.22;101288.69;108082;1254;60297;-66
2024/03/12 05:11:34;;;;;;;17.70;10.80;;;;;;;0.63;70.60;101290.70;108127;1252;60244;-65
2024/03/12 05:14:27;;;;;;;18.60;10.40;;;;;;;0.69;69.73;101289.48;108166;1253;73995;-64
2024/03/12 05:17:23;;;;;;;19.50;11.40;;;;;;;0.77;69.18;101292.95;108150;1251;71523;-65
2024/03/12 05:20:14;;;;;;;20.20;11.50;;;;;;;0.82;68.55;101290.26;108199;1253;72824;-65
2024/03/12 05:22:58;;;;;;;18.80;10.50;;;;;;;0.89;68.20;101292.00;108080;1253;61866;-66
2024/03/12 05:25:56;;;;;;;18.10;10.30;;;;;;;0.95;67.42;101293.75;108085;1251;60274;-66
2024/03/12 05:28:24;;;;;;;18.60;10.10;;;;;;;0.99;67.01;101295.77;108171;1253;73868;-65
2024/03/12 05:30:57;;;;;;;16.90;9.60;;;;;;;1.03;66.49;101299.16;108199;1253;74711;-65
2024/03/12 05:33:50;;;;;;;20.00;10.50;;;;;;;1.07;66.07;101300.61;108132;1257;72832;-66
2024/03/12 05:36:40;;;;;;;17.50;10.40;;;;;;;1.11;65.75;101298.30;108160;1252;60296;-66
2024/03/12 05:40:00;;;;;;;18.80;10.90;;;;;;;1.18;65.27;101300.23;108216;1253;60565;-66
2024/03/12 05:49:15;;;;;;;17.70;10.10;;;;;;;1.38;65.10;101301.17;108148;1253;60444;-66
2024/03/12 05:52:08;;;;;;;18.10;10.90;;;;;;;1.46;64.84;101298.95;108138;1253;73929;-66
2024/03/12 05:54:37;;;;;;;20.60;11.70;;;;;;;1.51;64.45;101298.29;108183;1253;74709;-66
2024/03/12 05:57:33;;;;;;;20.70;12.40;;;;;;;1.56;64.29;101296.38;108175;1253;72786;-65
2024/03/12 06:00:25;;;;;;;19.00;12.20;;;;;;;1.59;64.19;101300.68;108168;1254;60468;-68
2024/03/12 06:03:26;;;;;;;19.00;11.30;;;;;;;1.65;64.36;101298.45;108098;1253;60535;-67
2024/03/12 06:06:15;;;;;;;19.50;11.10;;;;;;;1.71;64.19;101298.95;108201;1253;73925;-66
2024/03/12 06:08:57;;;;;;;21.60;11.80;;;;;;;1.75;64.04;101298.09;108216;1253;71315;-66
2024/03/12 06:11:58;;;;;;;18.60;10.90;;;;;;;1.79;63.86;101296.08;108110;1253;72725;-66
2024/03/12 06:14:51;;;;;;;19.90;12.00;;;;;;;1.81;63.68;101291.91;108157;1253;60284;-66
2024/03/12 06:17:37;;;;;;;23.90;11.80;;;;;;;1.84;63.72;101293.26;108237;1253;60134;-65
2024/03/12 06:20:22;;;;;;;17.10;11.10;;;;;;;1.87;63.43;101294.23;108205;1253;73939;-66
2024/03/12 06:22:55;;;;;;;19.20;11.60;;;;;;;1.91;63.23;101294.30;108180;1253;72750;-65
2024/03/12 06:25:42;;;;;;;20.70;11.80;;;;;;;1.96;63.29;101295.66;108191;1253;71178;-67
2024/03/12 06:28:27;;;;;;;18.60;11.80;;;;;;;2.00;63.11;101290.05;108132;1253;60328;-65
2024/03/12 06:31:24;;;;;;;18.30;11.60;;;;;;;2.05;62.72;101287.95;108205;1253;60338;-66
2024/03/12 06:34:08;;;;;;;20.70;11.90;;;;;;;2.07;62.77;101284.78;108218;1253;75375;-66
2024/03/12 06:37:03;;;;;;;19.90;11.50;;;;;;;2.15;63.06;101284.15;108167;1253;71842;-66
2024/03/12 06:39:46;;;;;;;22.80;12.60;;;;;;;2.20;63.01;101283.70;108057;1256;73750;-66
2024/03/12 06:42:29;;;;;;;19.40;12.10;;;;;;;2.24;62.73;101283.02;108196;1253;60428;-66
2024/03/12 06:45:17;;;;;;;21.00;12.70;;;;;;;2.28;62.68;101281.15;108193;1252;60234;-66
2024/03/12 06:48:00;;;;;;;;;;;;;;;2.32;62.73;101285.31;108192;1251;73115;-67
2024/03/12 06:50:44;;;;;;;21.60;12.30;;;;;;;2.37;62.81;101283.33;108212;1255;71977;-67
2024/03/12 06:53:14;;;;;;;24.90;13.30;;;;;;;2.43;62.80;101284.21;108199;1253;72495;-66
2024/03/12 06:55:46;;;;;;;24.90;13.10;;;;;;;2.48;62.47;101282.85;108142;1253;60515;-67
2024/03/12 06:58:21;;;;;;;23.10;13.70;;;;;;;2.53;62.63;101282.30;108130;1253;60222;-66
2024/03/12 07:01:04;;;;;;;21.90;12.40;;;;;;;2.56;62.29;101283.97;108202;1252;71996;-66
2024/03/12 07:03:51;;;;;;;20.60;12.50;;;;;;;2.62;62.16;101285.72;108209;1253;72492;-66
2024/03/12 07:06:33;;;;;;;21.50;12.90;;;;;;;2.65;62.27;101282.30;108183;1257;72496;-65
2024/03/12 07:09:08;;;;;;;19.40;12.00;;;;;;;2.70;62.34;101282.85;108185;1253;60451;-65
2024/03/12 07:12:02;;;;;;;20.40;12.60;;;;;;;2.80;62.46;101279.34;108160;1253;62300;-66
2024/03/12 07:14:54;;;;;;;22.70;13.60;;;;;;;2.92;62.56;101280.34;108180;1253;73948;-66
2024/03/12 07:17:50;;;;;;;23.20;14.00;;;;;;;2.98;62.37;101284.17;108132;1252;72743;-65
2024/03/12 07:20:39;;;;;;;22.30;13.30;;;;;;;3.00;62.12;101283.19;108199;1253;71308;-67
2024/03/12 07:23:28;;;;;;;22.50;13.50;;;;;;;3.08;62.12;101281.23;108142;1253;61613;-66
2024/03/12 07:26:13;;;;;;;23.00;13.90;;;;;;;3.15;62.08;101281.04;108086;1252;60327;-66
2024/03/12 07:29:07;;;;;;;21.70;14.00;;;;;;;3.20;61.67;101289.90;108327;1253;76054;-67
2024/03/12 07:31:55;;;;;;;19.20;12.80;;;;;;;3.22;61.45;101291.12;108542;1253;72726;-67
2024/03/12 07:34:42;;;;;;;23.60;13.30;;;;;;;3.24;61.45;101290.78;108145;1253;71512;-69
2024/03/12 07:37:40;;;;;;;24.30;15.00;;;;;;;3.29;61.17;101290.55;108185;1253;60487;-67
2024/03/12 07:40:25;;;;;;;24.00;14.30;;;;;;;3.34;61.13;101288.31;108200;1252;61633;-66
2024/03/12 07:43:07;;;;;;;21.80;13.50;;;;;;;3.36;60.85;101290.04;108086;1253;74935;-67
2024/03/12 07:45:53;;;;;;;24.80;15.00;;;;;;;3.39;61.02;101288.26;108065;1253;72574;-65
2024/03/12 07:48:33;;;;;;;26.80;14.90;;;;;;;3.45;61.23;101286.08;108135;1253;73487;-66
2024/03/12 07:51:16;;;;;;;21.90;14.90;;;;;;;3.54;61.14;101286.42;108174;1253;61537;-66
2024/03/12 07:53:55;;;;;;;22.10;13.40;;;;;;;3.61;60.80;101287.98;108143;1253;62489;-67
2024/03/12 07:56:31;;;;;;;23.50;14.80;;;;;;;3.66;60.60;101286.10;108069;1253;76003;-66
2024/03/12 07:59:33;;;;;;;26.30;15.30;;;;;;;3.74;60.57;101286.19;108161;1252;73742;-67
2024/03/12 08:02:26;;;;;;;22.90;14.60;;;;;;;3.82;60.11;101289.77;108142;1253;73843;-66
2024/03/12 08:05:10;;;;;;;;;;;;;;;3.91;59.99;101285.44;108081;1253;61735;-67
2024/03/12 08:07:54;;;;;;;22.30;13.90;;;;;;;3.99;59.77;101285.45;108200;1252;60743;-66
2024/03/12 08:10:50;;;;;;;24.80;15.00;;;;;;;4.05;59.19;101286.98;108160;1253;76223;-67
2024/03/12 08:13:26;;;;;;;23.00;15.20;;;;;;;4.08;58.72;101286.74;108103;1253;71842;-66
2024/03/12 08:16:21;;;;;;;21.70;14.20;;;;;;;4.14;58.52;101284.05;107950;1253;74953;-66
2024/03/12 08:19:02;;;;;;;20.70;13.60;;;;;;;4.20;58.08;101280.70;108092;1253;60529;-65
2024/03/12 08:21:39;;;;;;;19.90;13.50;;;;;;;4.26;57.68;101284.35;108217;1252;60355;-66
2024/03/12 08:24:29;;;;;;;22.60;13.80;;;;;;;4.34;57.22;101285.60;108229;1253;75773;-65
2024/03/12 08:27:12;;;;;;;22.50;13.80;;;;;;;4.45;56.73;101287.44;108172;1253;73277;-66
2024/03/12 08:29:44;;;;;;;;;;;;;;;4.54;56.32;101283.92;108188;1254;72908;-66
2024/03/12 08:32:16;;;;;;;21.10;13.70;;;;;;;4.60;55.88;101280.80;108207;1252;60315;-66
2024/03/12 08:34:46;;;;;;;22.60;13.80;;;;;;;4.65;55.53;101280.61;108207;1253;60862;-65
2024/03/12 08:37:15;;;;;;;22.00;14.60;;;;;;;4.68;55.15;101279.33;108142;1252;74518;-67
2024/03/12 08:39:43;;;;;;;20.90;13.00;;;;;;;4.67;55.05;101281.77;108207;1253;73238;-67
2024/03/12 08:42:11;;;;;;;22.90;14.90;;;;;;;4.69;55.09;101284.41;108151;1253;73210;-65
2024/03/12 08:44:43;;;;;;;22.90;14.50;;;;;;;4.74;55.00;101283.04;108218;1253;60349;-65
2024/03/12 08:47:21;;;;;;;23.70;14.10;;;;;;;4.80;54.89;101283.29;108185;1251;60917;-65
2024/03/12 08:49:49;;;;;;;21.80;14.30;;;;;;;4.87;54.64;101282.04;108224;1253;73953;-67
2024/03/12 08:52:17;;;;;;;24.50;14.80;;;;;;;4.87;54.29;101281.03;108192;1252;72950;-65
2024/03/12 08:54:46;;;;;;;24.30;15.00;;;;;;;4.87;54.21;101280.61;108201;1253;74887;-65
2024/03/12 08:57:15;;;;;;;21.30;13.50;;;;;;;4.87;54.26;101284.33;108194;1252;61477;-66
2024/03/12 08:59:45;;;;;;;23.60;15.10;;;;;;;4.89;54.09;101285.91;108190;1251;62346;-67
2024/03/12 09:02:14;;;;;;;21.60;14.60;;;;;;;4.90;53.92;101286.94;108181;1253;75997;-68
2024/03/12 09:04:42;;;;;;;24.20;15.10;;;;;;;4.96;53.85;101281.20;108187;1253;74011;-65
2024/03/12 09:07:13;;;;;;;21.40;14.90;;;;;;;5.03;53.80;101279.17;108069;1254;75255;-67
2024/03/12 09:09:40;;;;;;;23.90;14.40;;;;;;;5.07;53.67;101279.66;108159;1253;61467;-67
2024/03/12 09:12:08;;;;;;;26.10;15.00;;;;;;;5.16;53.79;101281.33;108222;1252;62277;-67
2024/03/12 09:14:36;;;;;;;21.40;14.10;;;;;;;5.25;53.56;101282.60;108174;1253;76264;-65
2024/03/12 09:17:07;;;;;;;21.30;14.10;;;;;;;5.33;53.33;101278.16;108173;1252;75028;-65
2024/03/12 09:19:35;;;;;;;25.40;16.00;;;;;;;5.40;53.09;101272.73;108226;1253;74898;-66
2024/03/12 09:22:03;;;;;;;26.70;17.30;;;;;;;5.45;52.99;101274.56;108142;1258;60335;-66
2024/03/12 09:24:31;;;;;;;23.80;15.70;;;;;;;5.50;52.90;101271.02;108217;1253;62257;-64
2024/03/12 09:26:59;;;;;;;22.50;14.10;;;;;;;5.53;52.80;101273.14;108231;1253;76042;-65
2024/03/12 09:29:27;;;;;;;24.20;16.50;;;;;;;5.54;52.66;101268.56;108178;1257;73221;-65
2024/03/12 09:31:56;;;;;;;25.70;16.20;;;;;;;5.47;52.70;101268.05;108027;1253;72767;-66
2024/03/12 09:34:25;;;;;;;23.40;16.00;;;;;;;5.38;52.56;101269.64;108158;1253;61143;-66
2024/03/12 09:36:53;;;;;;;23.50;15.70;;;;;;;5.29;52.60;101266.63;108100;1253;60303;-65
2024/03/12 09:39:24;;;;;;;25.10;17.00;;;;;;;5.28;52.60;101267.73;108113;1253;73698;-67
2024/03/12 09:41:53;;;;;;;25.80;16.50;;;;;;;5.30;52.35;101265.20;108195;1253;74787;-67
2024/03/12 09:44:21;;;;;;;21.30;15.50;;;;;;;5.33;52.37;101266.71;108206;1252;71557;-65
2024/03/12 09:46:51;;;;;;;22.60;16.10;;;;;;;5.34;52.28;101263.58;108164;1253;60527;-65
2024/03/12 09:49:19;;;;;;;23.40;16.40;;;;;;;5.31;52.24;101271.60;108180;1253;60854;-67
2024/03/12 09:51:47;;;;;;;22.90;14.80;;;;;;;5.31;52.06;101269.66;108264;1253;74237;-65
2024/03/12 09:54:14;;;;;;;24.90;16.60;;;;;;;5.31;51.90;101267.54;108272;1253;73242;-68
2024/03/12 09:56:42;;;;;;;23.70;15.60;;;;;;;5.30;51.81;101268.54;108148;1253;74932;-66
2024/03/12 09:59:11;;;;;;;25.50;15.80;;;;;;;5.27;52.11;101270.29;108217;1253;60389;-67
2024/03/12 10:01:39;;;;;;;19.20;13.80;;;;;;;5.24;52.77;101269.44;108188;1253;62416;-66
2024/03/12 10:04:07;;;;;;;20.00;13.20;;;;;;;5.18;53.69;101269.41;108241;1253;76179;-67
2024/03/12 10:06:35;;;;;;;19.80;13.50;;;;;;;5.11;54.77;101271.23;108061;1253;71703;-66
2024/03/12 10:09:08;;;;;;;18.00;12.50;;;;;;;5.04;55.82;101269.60;108234;1253;73100;-66
2024/03/12 10:11:35;;;;;;;21.80;14.20;;;;;;;4.91;56.83;101267.02;108119;1254;62859;-67
2024/03/12 10:14:03;;;;;;;24.00;14.80;;;;;;;4.78;57.87;101272.13;108275;1252;62271;-66
2024/03/12 10:16:34;;;;;;;18.90;13.10;;;;;;;4.69;58.70;101271.27;108218;1253;76436;-65
2024/03/12 10:19:14;;;;;;;20.40;13.50;;;;;;;4.65;59.41;101273.73;108218;1253;71631;-66
2024/03/12 10:21:44;;;;;;;20.30;13.50;;;;;;;4.60;60.31;101270.55;108183;1253;72975;-66
2024/03/12 10:24:14;;;;;;;20.80;13.20;;;;;;;4.50;61.18;101264.46;108158;1252;62452;-66
2024/03/12 10:26:44;;;;;;;19.20;13.40;;;;;;;4.36;62.39;101264.17;108227;1252;61079;-67
2024/03/12 10:29:13;;;;;;;19.80;12.80;;;;;;;4.24;63.74;101260.88;108133;1253;74243;-67
2024/03/12 10:31:43;;;;;;;18.30;12.50;;;;;;;4.15;66.14;101264.70;108207;1253;71033;-67
2024/03/12 10:34:19;;;;;;;17.60;12.10;;;;;;;4.01;68.77;101262.77;108199;1253;72818;-66
2024/03/12 10:36:49;;;;;;;16.70;11.60;;;;;;;3.89;71.84;101263.44;108177;1252;60270;-66
2024/03/12 10:39:25;;;;;;;19.20;12.60;;;;;;;3.77;74.80;101261.26;108140;1253;60299;-68
2024/03/12 10:41:59;;;;;;;20.40;13.50;;;;;;;3.66;78.43;101260.73;108222;1252;76188;-67
2024/03/12 10:44:28;;;;;;;20.10;13.40;;;;;;;3.56;80.93;101260.63;108196;1253;75041;-67
2024/03/12 10:46:59;;;;;;;20.20;12.40;;;;;;;3.50;83.85;101260.52;108183;1252;74969;-68
2024/03/12 10:49:28;;;;;;;19.90;11.50;;;;;;;3.43;87.08;101256.97;108060;1253;63141;-66
2024/03/12 10:51:55;;;;;;;15.20;10.90;;;;;;;3.33;91.72;101261.45;108179;1253;62305;-67
2024/03/12 10:54:23;;;;;;;16.30;10.90;;;;;;;3.20;94.92;101266.74;108032;1253;76109;-67
2024/03/12 10:56:51;;;;;;;19.10;11.20;;;;;;;3.04;99.04;101265.27;108290;1252;75119;-68
2024/03/12 10:59:19;;;;;;;15.60;10.90;;;;;;;2.94;100.00;101263.23;108164;1252;72503;-67
2024/03/12 11:01:47;;;;;;;15.80;9.70;;;;;;;2.86;100.00;101265.80;108210;1254;61282;-67
2024/03/12 11:04:16;;;;;;;14.80;9.00;;;;;;;2.74;100.00;101262.48;108257;1252;60495;-67
2024/03/12 11:06:43;;;;;;;11.60;8.40;;;;;;;2.63;100.00;101270.20;108234;1253;74750;-68
2024/03/12 11:09:17;;;;;;;17.50;9.80;;;;;;;2.55;100.00;101270.30;108263;1252;74979;-67
2024/03/12 11:11:46;;;;;;;14.20;9.60;;;;;;;2.46;100.00;101270.09;108150;1253;74889;-67
2024/03/12 11:14:13;;;;;;;16.70;10.60;;;;;;;2.41;100.00;101272.06;108228;1252;63028;-67
2024/03/12 11:16:41;;;;;;;17.30;11.00;;;;;;;2.32;100.00;101272.85;108044;1253;62310;-69
2024/03/12 11:19:20;;;;;;;18.30;11.70;;;;;;;2.27;100.00;101275.47;108216;1253;76092;-67
2024/03/12 11:21:50;;;;;;;18.40;12.10;;;;;;;2.22;100.00;101273.95;108144;1253;73762;-67
2024/03/12 11:24:25;;;;;;;19.10;12.40;;;;;;;2.20;100.00;101272.91;108133;1254;74881;-67
2024/03/12 11:26:54;;;;;;;16.30;10.90;;;;;;;2.21;100.00;101271.30;108232;1254;60363;-68
2024/03/12 11:30:11;;;;;;;18.50;11.90;;;;;;;2.22;100.00;101269.52;108245;1252;62000;-67
2024/03/12 11:32:42;;;;;;;17.40;11.80;;;;;;;2.18;100.00;101270.33;108220;1253;74300;-67
2024/03/12 11:35:29;;;;;;;20.70;12.10;;;;;;;2.16;100.00;101272.54;108278;1253;75092;-67
2024/03/12 11:37:59;;;;;;;22.00;12.60;;;;;;;2.16;100.00;101273.83;108218;1253;74959;-68
2024/03/12 11:40:28;;;;;;;16.60;11.80;;;;;;;2.14;100.00;101272.27;108148;1252;61250;-68
2024/03/12 11:42:56;;;;;;;18.50;12.20;;;;;;;2.13;100.00;101267.83;108257;1252;60522;-70
2024/03/12 11:45:45;;;;;;;17.70;12.20;;;;;;;2.11;100.00;101266.67;108231;1253;72338;-68
2024/03/12 11:48:21;;;;;;;19.60;11.70;;;;;;;2.08;100.00;101269.64;108220;1252;74985;-68
2024/03/12 11:50:54;;;;;;;17.70;12.10;;;;;;;2.06;100.00;101270.55;108193;1253;74128;-68
2024/03/12 11:53:22;;;;;;;18.60;11.80;;;;;;;2.05;100.00;101269.32;108317;1252;63006;-68
2024/03/12 11:56:05;;;;;;;18.70;12.80;;;;;;;2.06;100.00;101275.95;108076;1252;62618;-68
2024/03/12 11:58:46;;;;;;;17.70;12.10;;;;;;;2.10;100.00;101273.71;108149;1253;76132;-67
2024/03/12 12:01:33;;;;;;;15.80;11.30;;;;;;;2.14;100.00;101271.08;108146;1253;73362;-66